Time;durP1;ratioP1;P1;durP2;ratioP2;P2;SDS_P1;SDS_P2;PMS_P1;PMS_P2;Temp;Humidity;BMP_temperature;BMP_pressure;BME280_temperature;BME280_humidity;BME280_pressure;Samples;Min_cycle;Max_cycle;Signal;HPM_P1;HPM_P2
2021/08/27 00:00:57;;;;;;;11.98;7.78;;;12.50;99.90;;;;;;6155238;23;20002;-76
2021/08/27 00:03:23;;;;;;;14.27;7.93;;;12.50;99.90;;;;;;6154385;23;20006;-77
2021/08/27 00:05:49;;;;;;;10.18;7.53;;;12.50;99.90;;;;;;6155369;23;20021;-77
2021/08/27 00:08:15;;;;;;;10.98;7.80;;;12.50;99.90;;;;;;6154914;23;20002;-77
2021/08/27 00:10:41;;;;;;;10.45;7.50;;;12.50;99.90;;;;;;6154841;23;20008;-77
2021/08/27 00:13:07;;;;;;;13.20;7.22;;;12.50;99.90;;;;;;6154809;23;20006;-76
2021/08/27 00:15:33;;;;;;;12.00;7.18;;;12.50;99.90;;;;;;6155107;23;20014;-76
2021/08/27 00:17:59;;;;;;;10.35;7.80;;;12.50;99.90;;;;;;6154265;23;20021;-77
2021/08/27 00:20:25;;;;;;;10.32;7.50;;;12.60;99.90;;;;;;6154573;23;20001;-76
2021/08/27 00:22:50;;;;;;;11.65;6.53;;;12.60;99.90;;;;;;6154714;23;20009;-76
2021/08/27 00:25:16;;;;;;;9.75;6.43;;;12.60;99.90;;;;;;6154018;23;20080;-76
2021/08/27 00:27:42;;;;;;;14.38;7.10;;;12.70;99.90;;;;;;6154332;23;20006;-76
2021/08/27 00:30:08;;;;;;;12.43;6.35;;;12.70;99.90;;;;;;6154261;23;20068;-76
2021/08/27 00:32:34;;;;;;;8.85;6.05;;;12.70;99.90;;;;;;6154399;23;20006;-76
2021/08/27 00:35:03;;;;;;;9.88;7.35;;;12.70;99.90;;;;;;6154531;23;20409;-76
2021/08/27 00:37:29;;;;;;;13.18;6.90;;;12.70;99.90;;;;;;6154309;23;20005;-77
2021/08/27 00:39:55;;;;;;;13.63;7.30;;;12.70;99.90;;;;;;6155176;23;20006;-77
2021/08/27 00:42:20;;;;;;;8.57;7.03;;;12.70;99.90;;;;;;6155173;23;20084;-77
2021/08/27 00:44:46;;;;;;;13.90;7.00;;;12.60;99.90;;;;;;6155033;23;20008;-77
2021/08/27 00:47:12;;;;;;;12.52;7.82;;;12.60;99.90;;;;;;6155489;23;20011;-76
2021/08/27 00:49:38;;;;;;;10.13;7.60;;;12.60;99.90;;;;;;6154886;23;20009;-77
2021/08/27 00:52:05;;;;;;;14.55;8.35;;;12.60;99.90;;;;;;6154122;23;20008;-76
2021/08/27 00:54:32;;;;;;;10.45;8.05;;;12.60;99.90;;;;;;6154824;23;20009;-76
2021/08/27 00:56:57;;;;;;;14.05;7.97;;;12.60;99.90;;;;;;6154076;23;20006;-77
2021/08/27 00:59:23;;;;;;;8.73;7.63;;;12.50;99.90;;;;;;6154607;23;20028;-77
2021/08/27 01:01:49;;;;;;;11.55;8.05;;;12.50;99.90;;;;;;6154113;23;20005;-77
2021/08/27 01:04:15;;;;;;;10.40;7.55;;;12.60;99.90;;;;;;6154365;23;20005;-76
2021/08/27 01:07:01;;;;;;;13.63;8.30;;;12.60;99.90;;;;;;6154981;23;20008;-77
2021/08/27 01:09:30;;;;;;;11.07;8.30;;;12.60;99.90;;;;;;6153836;23;20061;-76
2021/08/27 01:12:05;;;;;;;11.07;7.53;;;12.60;99.90;;;;;;6154517;23;20445;-76
2021/08/27 01:14:36;;;;;;;10.88;8.55;;;12.70;99.90;;;;;;6152952;23;20618;-77
2021/08/27 01:17:16;;;;;;;12.63;8.15;;;12.70;99.90;;;;;;6153868;23;20006;-76
2021/08/27 01:20:06;;;;;;;22.38;9.65;;;12.70;99.90;;;;;;6154558;23;20028;-76
2021/08/27 01:22:43;;;;;;;12.50;9.50;;;12.80;99.90;;;;;;6154981;23;20008;-76
2021/08/27 01:25:11;;;;;;;12.18;9.50;;;12.90;99.90;;;;;;6153530;23;20037;-76
2021/08/27 01:27:38;;;;;;;13.63;10.80;;;12.90;99.90;;;;;;6153581;23;20005;-77
2021/08/27 01:30:07;;;;;;;13.60;10.63;;;12.90;99.90;;;;;;6153681;23;20002;-77
2021/08/27 01:32:39;;;;;;;13.40;10.57;;;12.90;99.90;;;;;;6152644;23;20006;-76
2021/08/27 01:35:06;;;;;;;16.40;12.05;;;12.90;99.90;;;;;;6154132;23;20020;-77
2021/08/27 01:37:33;;;;;;;15.77;12.43;;;12.90;99.90;;;;;;6154638;23;20002;-77
2021/08/27 01:40:01;;;;;;;18.77;12.85;;;12.90;99.90;;;;;;6153413;23;20009;-77
2021/08/27 01:42:28;;;;;;;17.85;13.07;;;12.90;99.90;;;;;;6153282;23;20008;-77
2021/08/27 01:44:59;;;;;;;24.30;14.27;;;12.90;99.90;;;;;;6153867;23;20002;-77
2021/08/27 01:47:32;;;;;;;16.83;13.60;;;12.90;99.90;;;;;;6153685;23;20052;-77
2021/08/27 01:50:00;;;;;;;20.90;14.77;;;12.90;99.90;;;;;;6153336;23;20052;-77
2021/08/27 01:52:26;;;;;;;17.50;15.20;;;12.90;99.90;;;;;;6153645;23;20445;-76
2021/08/27 01:54:56;;;;;;;18.10;15.38;;;12.90;99.90;;;;;;6153780;23;20010;-77
2021/08/27 01:57:22;;;;;;;21.53;15.10;;;12.90;99.90;;;;;;6153435;23;20006;-77
2021/08/27 01:59:48;;;;;;;21.45;15.65;;;12.90;99.90;;;;;;6153295;23;20005;-76
2021/08/27 02:02:16;;;;;;;18.42;14.63;;;12.90;99.90;;;;;;6152429;23;20009;-76
2021/08/27 02:04:49;;;;;;;16.95;13.70;;;12.90;99.90;;;;;;6151723;23;20002;-77
2021/08/27 02:07:16;;;;;;;19.40;14.15;;;12.90;99.90;;;;;;6153924;23;20010;-77
2021/08/27 02:09:43;;;;;;;20.20;15.13;;;12.90;99.90;;;;;;6154088;23;20084;-76
2021/08/27 02:12:09;;;;;;;20.73;16.17;;;12.90;99.90;;;;;;6153770;23;20036;-76
2021/08/27 02:14:38;;;;;;;29.98;18.58;;;12.90;99.90;;;;;;6153706;23;20353;-77
2021/08/27 02:17:06;;;;;;;21.80;16.40;;;12.90;99.90;;;;;;6152996;23;20005;-76
2021/08/27 02:19:33;;;;;;;27.05;17.83;;;12.90;99.90;;;;;;6153769;23;20453;-77
2021/08/27 02:22:00;;;;;;;22.58;17.85;;;12.90;99.90;;;;;;6154313;23;20052;-76
2021/08/27 02:24:37;;;;;;;23.33;17.95;;;12.90;99.90;;;;;;6153842;23;20011;-77
2021/08/27 02:27:05;;;;;;;25.77;16.88;;;13.00;99.90;;;;;;6152558;23;20396;-76
2021/08/27 02:29:33;;;;;;;24.88;18.55;;;13.00;99.90;;;;;;6152947;23;20009;-77
2021/08/27 02:32:02;;;;;;;30.08;17.92;;;13.00;99.90;;;;;;6126483;23;20033;-76
2021/08/27 02:34:31;;;;;;;24.35;17.73;;;13.00;99.90;;;;;;6153670;23;20071;-76
2021/08/27 02:36:58;;;;;;;24.17;16.08;;;12.90;99.90;;;;;;6153005;23;20010;-77
2021/08/27 02:39:27;;;;;;;25.88;17.38;;;13.00;99.90;;;;;;6155870;23;20012;-76
2021/08/27 02:41:54;;;;;;;25.08;17.25;;;13.10;99.90;;;;;;6155910;23;20002;-77
2021/08/27 02:44:19;;;;;;;24.77;18.70;;;13.10;99.90;;;;;;6155879;23;20001;-76
2021/08/27 02:46:45;;;;;;;26.27;18.60;;;13.10;99.90;;;;;;6155753;23;20048;-77
2021/08/27 02:49:12;;;;;;;27.42;19.40;;;13.10;99.90;;;;;;6155656;23;21016;-76
2021/08/27 02:51:46;;;;;;;24.90;19.00;;;13.10;99.90;;;;;;6155986;23;20377;-75
2021/08/27 02:54:15;;;;;;;23.55;18.05;;;13.10;99.90;;;;;;6155050;23;20001;-75
2021/08/27 02:56:42;;;;;;;24.30;17.25;;;13.10;99.90;;;;;;6155433;23;20524;-76
2021/08/27 02:59:12;;;;;;;23.90;17.95;;;13.10;99.90;;;;;;6155184;23;20005;-75
2021/08/27 03:01:50;;;;;;;27.48;17.92;;;13.20;99.90;;;;;;6155221;23;20025;-77
2021/08/27 03:04:31;;;;;;;28.67;17.83;;;13.20;99.90;;;;;;6155167;23;20008;-76
2021/08/27 03:07:05;;;;;;;25.75;18.67;;;13.20;99.90;;;;;;6154219;23;20008;-76
2021/08/27 03:09:42;;;;;;;30.80;18.48;;;13.30;99.90;;;;;;6156007;23;20005;-77
2021/08/27 03:12:11;;;;;;;28.38;18.75;;;13.20;99.90;;;;;;6155495;23;20005;-76
2021/08/27 03:14:41;;;;;;;30.05;19.52;;;13.30;99.90;;;;;;6154180;23;20020;-77
2021/08/27 03:17:15;;;;;;;32.25;19.70;;;13.30;99.90;;;;;;6155875;23;20006;-77
2021/08/27 03:19:54;;;;;;;30.75;20.55;;;13.30;99.90;;;;;;6155471;23;20009;-76
2021/08/27 03:22:34;;;;;;;33.58;22.27;;;13.30;99.90;;;;;;6129790;23;20012;-76
2021/08/27 03:25:05;;;;;;;;;;;13.30;99.90;;;;;;6155866;23;20451;-76
2021/08/27 03:27:32;;;;;;;;;;;13.40;99.90;;;;;;6155749;23;19901;-76
2021/08/27 03:30:06;;;;;;;31.52;21.83;;;13.40;99.90;;;;;;6154843;23;19900;-77
2021/08/27 03:32:32;;;;;;;32.22;21.67;;;13.40;99.90;;;;;;6154874;23;20005;-76
2021/08/27 03:34:59;;;;;;;33.65;22.20;;;13.40;99.90;;;;;;6153984;23;20456;-77
2021/08/27 03:37:25;;;;;;;30.70;20.85;;;13.40;99.90;;;;;;6127946;23;20002;-75
2021/08/27 03:39:52;;;;;;;32.88;20.50;;;13.40;99.90;;;;;;6154923;23;20115;-76
2021/08/27 03:42:19;;;;;;;32.67;21.23;;;13.40;99.90;;;;;;6153344;23;20002;-77
2021/08/27 03:44:46;;;;;;;32.00;20.77;;;13.40;99.90;;;;;;6154625;23;20006;-76
2021/08/27 03:47:14;;;;;;;29.52;20.60;;;13.40;99.90;;;;;;6154148;23;20016;-76
2021/08/27 03:49:41;;;;;;;32.47;20.50;;;13.40;99.90;;;;;;6154537;23;20010;-76
2021/08/27 03:52:08;;;;;;;27.90;20.42;;;13.40;99.90;;;;;;6125496;23;20329;-76
2021/08/27 03:54:34;;;;;;;28.55;20.20;;;13.40;99.90;;;;;;6153861;23;20447;-77
2021/08/27 03:57:02;;;;;;;28.83;20.13;;;13.40;99.90;;;;;;6153389;23;20006;-76
2021/08/27 03:59:29;;;;;;;28.00;19.85;;;13.40;99.90;;;;;;6152240;23;20029;-76
2021/08/27 04:01:57;;;;;;;31.50;21.55;;;13.40;99.90;;;;;;6151881;23;20067;-77
2021/08/27 04:04:23;;;;;;;38.28;21.52;;;13.40;99.90;;;;;;6150945;23;20008;-76
2021/08/27 04:07:00;;;;;;;29.85;19.70;;;13.40;99.90;;;;;;6151883;23;20365;-77
2021/08/27 04:09:27;;;;;;;33.50;21.17;;;13.40;99.90;;;;;;6154565;23;20005;-77
2021/08/27 04:11:54;;;;;;;30.00;20.05;;;13.40;99.90;;;;;;6154848;23;20002;-76
2021/08/27 04:14:20;;;;;;;28.40;20.77;;;13.40;99.90;;;;;;6152454;23;20009;-77
2021/08/27 04:16:46;;;;;;;28.88;19.27;;;13.40;99.90;;;;;;6154746;23;20444;-76
2021/08/27 04:19:15;;;;;;;27.27;18.85;;;13.40;99.90;;;;;;6153203;23;20076;-76
2021/08/27 04:21:42;;;;;;;25.17;18.48;;;13.50;99.90;;;;;;6155461;23;20028;-76
2021/08/27 04:24:08;;;;;;;26.38;19.20;;;13.50;99.90;;;;;;6154339;23;20306;-76
2021/08/27 04:26:34;;;;;;;28.63;19.35;;;13.60;99.90;;;;;;6153701;23;20014;-76
2021/08/27 04:29:00;;;;;;;28.67;20.15;;;13.60;99.90;;;;;;6152381;23;20009;-76
2021/08/27 04:31:26;;;;;;;29.40;19.60;;;13.60;99.90;;;;;;6154228;23;20357;-76
2021/08/27 04:33:51;;;;;;;31.30;19.55;;;13.70;99.90;;;;;;6154892;23;20433;-77
2021/08/27 04:36:17;;;;;;;28.42;18.60;;;13.70;99.90;;;;;;6153952;23;20037;-76
2021/08/27 04:38:43;;;;;;;26.52;18.63;;;13.70;99.90;;;;;;6128456;23;20010;-76
2021/08/27 04:41:09;;;;;;;24.67;17.70;;;13.80;99.90;;;;;;6154715;23;20660;-76
2021/08/27 04:43:34;;;;;;;23.67;18.40;;;13.80;99.90;;;;;;6154324;23;20091;-76
2021/08/27 04:46:00;;;;;;;26.00;17.77;;;13.80;99.90;;;;;;6153961;23;20001;-77
2021/08/27 04:48:26;;;;;;;29.83;18.88;;;13.90;99.90;;;;;;6154556;23;20005;-75
2021/08/27 04:50:52;;;;;;;27.38;18.70;;;13.80;99.90;;;;;;6153450;23;20076;-75
2021/08/27 04:53:17;;;;;;;28.65;19.23;;;13.90;99.90;;;;;;6152232;23;20001;-76
2021/08/27 04:55:43;;;;;;;29.77;18.27;;;13.90;99.90;;;;;;6126898;23;20496;-76
2021/08/27 04:58:09;;;;;;;29.50;19.40;;;13.90;99.90;;;;;;6153221;23;20813;-76
2021/08/27 05:00:36;;;;;;;25.02;17.58;;;14.00;99.90;;;;;;6153267;23;20329;-76
2021/08/27 05:03:02;;;;;;;29.27;19.88;;;14.10;99.90;;;;;;6153153;23;20012;-76
2021/08/27 05:05:28;;;;;;;32.03;21.02;;;14.10;99.90;;;;;;6152196;23;20060;-75
2021/08/27 05:07:53;;;;;;;29.33;20.02;;;14.20;99.90;;;;;;6152446;23;20002;-76
2021/08/27 05:10:19;;;;;;;30.50;20.88;;;14.30;99.90;;;;;;6153546;23;20448;-76
2021/08/27 05:12:45;;;;;;;30.05;20.23;;;14.40;99.90;;;;;;6153117;23;20337;-76
2021/08/27 05:15:11;;;;;;;38.70;22.27;;;14.40;99.90;;;;;;6153713;23;20018;-76
2021/08/27 05:17:38;;;;;;;32.03;21.23;;;14.40;99.90;;;;;;6153473;23;20432;-77
2021/08/27 05:20:05;;;;;;;32.80;21.73;;;14.40;99.90;;;;;;6152890;23;20147;-76
2021/08/27 05:22:31;;;;;;;35.70;23.00;;;14.40;99.90;;;;;;6154505;23;20012;-76
2021/08/27 05:24:57;;;;;;;42.08;24.17;;;14.40;99.90;;;;;;6152046;23;20333;-75
2021/08/27 05:27:23;;;;;;;34.45;21.85;;;14.40;99.90;;;;;;6124228;23;20005;-75
2021/08/27 05:29:49;;;;;;;36.85;23.65;;;14.40;99.90;;;;;;6151122;23;20013;-75
2021/08/27 05:32:15;;;;;;;36.40;23.77;;;14.40;99.90;;;;;;6152018;23;20006;-75
2021/08/27 05:34:41;;;;;;;42.47;24.50;;;14.50;99.90;;;;;;6153257;23;20493;-76
2021/08/27 05:37:08;;;;;;;38.47;24.33;;;14.50;99.90;;;;;;6154582;23;20006;-76
2021/08/27 05:39:34;;;;;;;41.40;25.13;;;14.50;99.90;;;;;;6154222;23;20009;-76
2021/08/27 05:42:00;;;;;;;45.25;26.88;;;14.50;99.90;;;;;;6154247;23;20088;-75
2021/08/27 05:44:27;;;;;;;40.50;25.73;;;14.50;99.90;;;;;;6153805;23;20009;-75
2021/08/27 05:46:53;;;;;;;47.25;26.90;;;14.60;99.90;;;;;;6153840;23;20029;-76
2021/08/27 05:49:19;;;;;;;46.45;27.02;;;14.60;99.90;;;;;;6153699;23;20076;-76
2021/08/27 05:51:44;;;;;;;45.35;26.77;;;14.50;99.90;;;;;;6154351;23;20028;-76
2021/08/27 05:54:10;;;;;;;48.42;27.25;;;14.60;99.90;;;;;;6153534;23;20052;-76
2021/08/27 05:56:36;;;;;;;43.63;25.73;;;14.60;99.90;;;;;;6154076;23;20005;-76
2021/08/27 05:59:02;;;;;;;46.17;27.27;;;14.50;99.90;;;;;;6153535;23;20056;-76
2021/08/27 06:01:28;;;;;;;49.55;26.88;;;14.50;99.90;;;;;;6153208;23;20393;-75
2021/08/27 06:03:54;;;;;;;48.95;27.95;;;14.50;99.90;;;;;;6154431;23;20025;-75
2021/08/27 06:06:20;;;;;;;45.90;28.17;;;14.50;99.90;;;;;;6128143;23;20013;-75
2021/08/27 06:08:45;;;;;;;44.33;27.27;;;14.50;99.90;;;;;;6154388;23;20005;-75
2021/08/27 06:11:12;;;;;;;46.65;26.13;;;14.60;99.90;;;;;;6153787;23;20313;-75
2021/08/27 06:13:38;;;;;;;46.80;27.38;;;14.60;99.90;;;;;;6152791;23;20006;-76
2021/08/27 06:16:04;;;;;;;44.90;27.05;;;14.60;99.90;;;;;;6151851;23;20437;-75
2021/08/27 06:18:30;;;;;;;40.55;26.60;;;14.60;99.90;;;;;;6154118;23;20048;-75
2021/08/27 06:20:56;;;;;;;39.88;25.58;;;14.60;99.90;;;;;;6154331;23;20005;-76
2021/08/27 06:23:22;;;;;;;41.53;25.60;;;14.70;99.90;;;;;;6153917;23;20388;-75
2021/08/27 06:25:48;;;;;;;48.92;28.60;;;14.60;99.90;;;;;;6153100;23;20017;-75
2021/08/27 06:28:14;;;;;;;38.72;25.70;;;14.60;99.90;;;;;;6154143;23;20014;-76
2021/08/27 06:30:40;;;;;;;40.17;25.48;;;14.60;99.90;;;;;;6152772;23;20076;-76
2021/08/27 06:33:06;;;;;;;41.20;24.77;;;14.60;99.90;;;;;;6152764;23;20008;-76
2021/08/27 06:35:32;;;;;;;40.60;24.65;;;14.60;99.90;;;;;;6152316;23;20017;-75
2021/08/27 06:40:44;;;;;;;38.03;25.23;;;14.60;99.90;;;;;;6153968;23;20016;-75
2021/08/27 06:43:10;;;;;;;41.03;25.90;;;14.60;99.90;;;;;;6154089;23;20056;-75
2021/08/27 06:45:36;;;;;;;42.78;25.90;;;14.60;99.90;;;;;;6153019;23;20061;-75
2021/08/27 06:48:02;;;;;;;40.92;25.45;;;14.60;99.90;;;;;;6126452;23;20045;-75
2021/08/27 06:50:28;;;;;;;39.00;24.73;;;14.70;99.90;;;;;;6154146;23;20080;-75
2021/08/27 06:52:55;;;;;;;42.47;25.13;;;14.70;99.90;;;;;;6153841;23;20029;-75
2021/08/27 06:55:21;;;;;;;39.88;24.98;;;14.80;99.90;;;;;;6153699;23;20068;-76
2021/08/27 06:57:46;;;;;;;42.63;27.25;;;14.80;99.90;;;;;;6153984;23;20084;-75
2021/08/27 07:00:13;;;;;;;53.03;29.02;;;14.90;99.90;;;;;;6152985;23;20009;-75
2021/08/27 07:02:38;;;;;;;40.58;25.33;;;14.90;99.90;;;;;;6153707;23;20005;-75
2021/08/27 07:05:04;;;;;;;39.58;27.42;;;14.90;99.90;;;;;;6154104;23;20456;-75
2021/08/27 07:07:30;;;;;;;41.65;26.60;;;14.90;99.90;;;;;;6153886;23;20013;-75
2021/08/27 07:09:56;;;;;;;43.95;27.98;;;14.90;99.90;;;;;;6154157;23;20010;-76
2021/08/27 07:12:21;;;;;;;41.30;28.25;;;14.90;99.90;;;;;;6154370;23;20008;-75
2021/08/27 07:14:50;;;;;;;40.65;27.83;;;14.90;99.90;;;;;;6153628;23;20067;-75
2021/08/27 07:17:17;;;;;;;39.33;26.60;;;14.80;99.90;;;;;;6152682;23;20496;-75
2021/08/27 07:19:42;;;;;;;37.53;26.00;;;14.90;99.90;;;;;;6152676;23;20014;-75
2021/08/27 07:22:08;;;;;;;38.90;27.10;;;14.90;99.90;;;;;;6152895;23;20390;-76
2021/08/27 07:24:34;;;;;;;36.47;27.67;;;14.90;99.90;;;;;;6153967;23;20520;-76
2021/08/27 07:26:59;;;;;;;44.58;27.60;;;14.80;99.90;;;;;;6155342;23;20384;-76
2021/08/27 07:29:25;;;;;;;38.33;28.67;;;14.90;99.90;;;;;;6154980;23;20005;-76
2021/08/27 07:31:50;;;;;;;39.00;29.98;;;14.80;99.90;;;;;;6155394;23;20056;-75
2021/08/27 07:34:16;;;;;;;39.55;28.90;;;14.90;99.90;;;;;;6154981;23;20012;-76
2021/08/27 07:36:42;;;;;;;38.58;27.40;;;14.90;99.90;;;;;;6129523;23;20006;-76
2021/08/27 07:39:08;;;;;;;37.42;28.10;;;14.90;99.90;;;;;;6153827;23;20002;-75
2021/08/27 07:41:33;;;;;;;34.17;27.70;;;14.90;99.90;;;;;;6154267;23;20506;-79
2021/08/27 07:43:59;;;;;;;34.13;25.45;;;14.90;99.90;;;;;;6155406;23;20002;-79
2021/08/27 07:46:25;;;;;;;34.97;26.00;;;15.00;99.90;;;;;;6150572;23;20006;-75
2021/08/27 07:48:50;;;;;;;32.50;24.02;;;15.00;99.90;;;;;;6148580;23;19998;-75
2021/08/27 07:51:17;;;;;;;29.48;23.90;;;15.00;99.90;;;;;;6153248;23;20012;-75
2021/08/27 07:53:42;;;;;;;32.00;24.63;;;15.00;99.90;;;;;;6152127;23;20001;-76
2021/08/27 07:56:08;;;;;;;30.60;23.52;;;15.00;99.90;;;;;;6152865;23;20021;-76
2021/08/27 07:58:34;;;;;;;29.05;23.00;;;15.10;99.90;;;;;;6151907;23;20384;-76
2021/08/27 08:01:01;;;;;;;28.27;22.25;;;15.00;99.90;;;;;;6153656;23;20322;-74
2021/08/27 08:03:26;;;;;;;26.02;21.83;;;15.00;99.90;;;;;;6154266;23;20067;-75
2021/08/27 08:05:52;;;;;;;25.90;21.77;;;15.10;99.90;;;;;;6152857;23;20100;-76
2021/08/27 08:08:18;;;;;;;25.42;20.67;;;15.10;99.90;;;;;;6151318;23;20001;-76
2021/08/27 08:10:43;;;;;;;27.17;22.33;;;15.00;99.90;;;;;;6148331;23;20447;-75
2021/08/27 08:13:09;;;;;;;26.40;21.58;;;15.00;99.90;;;;;;6151313;23;20388;-76
2021/08/27 08:15:36;;;;;;;29.92;23.27;;;15.00;99.90;;;;;;6151926;23;20128;-75
2021/08/27 08:18:05;;;;;;;28.92;22.40;;;15.00;99.90;;;;;;6148257;23;20013;-74
2021/08/27 08:20:31;;;;;;;29.15;23.67;;;15.00;99.90;;;;;;6150902;23;20009;-74
2021/08/27 08:22:57;;;;;;;30.45;23.58;;;15.00;99.90;;;;;;6150586;23;20077;-76
2021/08/27 08:25:23;;;;;;;29.67;22.85;;;14.90;99.90;;;;;;6147037;23;20005;-74
2021/08/27 08:27:49;;;;;;;30.20;24.58;;;14.90;99.90;;;;;;6148483;23;20334;-73
2021/08/27 08:30:15;;;;;;;26.30;22.02;;;15.00;99.90;;;;;;6150668;23;20005;-75
2021/08/27 08:32:41;;;;;;;29.88;25.73;;;15.00;99.90;;;;;;6149283;23;20148;-76
2021/08/27 08:35:08;;;;;;;29.90;24.88;;;15.10;99.90;;;;;;6149383;23;20595;-75
2021/08/27 08:37:41;;;;;;;25.80;22.35;;;15.20;99.90;;;;;;6146153;23;20329;-77
2021/08/27 08:40:09;;;;;;;26.13;21.48;;;15.20;99.90;;;;;;6148997;23;20006;-76
2021/08/27 08:42:36;;;;;;;30.00;21.95;;;15.30;99.90;;;;;;6149405;23;20037;-76
2021/08/27 08:45:04;;;;;;;28.17;23.40;;;15.40;99.90;;;;;;6147074;23;20005;-75
2021/08/27 08:47:32;;;;;;;25.00;22.25;;;15.40;99.90;;;;;;6124069;23;20006;-76
2021/08/27 08:49:58;;;;;;;24.02;20.33;;;15.50;99.90;;;;;;6124513;23;20005;-76
2021/08/27 08:52:25;;;;;;;22.33;19.65;;;15.50;99.90;;;;;;6122711;23;20010;-75
2021/08/27 08:54:51;;;;;;;21.40;17.58;;;15.60;99.90;;;;;;6150118;23;20081;-76
2021/08/27 08:57:20;;;;;;;21.58;19.10;;;15.60;99.90;;;;;;6150523;23;20036;-76
2021/08/27 08:59:51;;;;;;;22.15;19.08;;;15.50;99.90;;;;;;6150241;23;20001;-76
2021/08/27 09:02:19;;;;;;;20.55;18.30;;;15.50;99.90;;;;;;6124340;23;20021;-75
2021/08/27 09:04:44;;;;;;;23.50;20.08;;;15.60;99.90;;;;;;6150569;23;20005;-75
2021/08/27 09:07:10;;;;;;;24.55;19.75;;;15.80;99.90;;;;;;6148464;23;20080;-75
2021/08/27 09:09:36;;;;;;;22.17;19.48;;;15.90;99.90;;;;;;6149388;23;20074;-77
2021/08/27 09:12:16;;;;;;;22.40;18.50;;;16.00;99.90;;;;;;6149702;23;20382;-73
2021/08/27 09:14:41;;;;;;;21.30;18.55;;;16.10;99.90;;;;;;6149939;23;20019;-72
2021/08/27 09:17:07;;;;;;;19.83;17.77;;;16.20;99.90;;;;;;6149943;23;20080;-76
2021/08/27 09:19:52;;;;;;;21.83;19.23;;;16.30;99.90;;;;;;6149533;23;20024;-76
2021/08/27 09:22:19;;;;;;;22.08;19.58;;;16.40;99.90;;;;;;6150167;23;20002;-75
2021/08/27 09:25:02;;;;;;;22.98;19.83;;;16.50;99.90;;;;;;6150048;23;20060;-75
2021/08/27 09:27:28;;;;;;;20.92;18.73;;;16.60;99.90;;;;;;6150765;23;20005;-74
2021/08/27 09:29:53;;;;;;;25.05;22.35;;;16.70;99.90;;;;;;6148694;23;20013;-75
2021/08/27 09:32:37;;;;;;;23.17;20.67;;;16.80;99.90;;;;;;6150365;23;20006;-73
2021/08/27 09:35:16;;;;;;;19.90;17.85;;;16.90;99.90;;;;;;6150218;23;20009;-76
2021/08/27 09:37:51;;;;;;;23.90;18.45;;;16.90;99.90;;;;;;6150092;23;20006;-75
2021/08/27 09:40:24;;;;;;;20.38;17.67;;;16.90;99.90;;;;;;6150266;23;20016;-75
2021/08/27 09:42:51;;;;;;;19.23;17.15;;;17.10;99.90;;;;;;6149925;23;20067;-76
2021/08/27 09:45:20;;;;;;;22.48;18.17;;;17.30;99.90;;;;;;6148446;23;20005;-76
2021/08/27 09:48:14;;;;;;;20.63;16.33;;;17.30;99.90;;;;;;6146869;23;20329;-75
2021/08/27 09:50:45;;;;;;;19.60;17.55;;;17.30;99.90;;;;;;6149287;23;20009;-76
2021/08/27 09:53:15;;;;;;;20.00;17.90;;;17.40;99.90;;;;;;6148996;23;20016;-75
2021/08/27 09:56:03;;;;;;;19.95;17.83;;;17.50;99.90;;;;;;6145603;23;20476;-75
2021/08/27 09:58:29;;;;;;;20.08;17.85;;;17.60;99.90;;;;;;6150032;23;20005;-74
2021/08/27 10:01:04;;;;;;;19.02;16.98;;;17.70;99.90;;;;;;6147143;23;20009;-74
2021/08/27 10:03:30;;;;;;;21.38;18.98;;;17.80;99.90;;;;;;6148461;23;20028;-74
2021/08/27 10:05:55;;;;;;;21.17;17.92;;;17.90;99.90;;;;;;6126958;23;20010;-74
2021/08/27 10:08:28;;;;;;;18.15;16.45;;;18.00;99.90;;;;;;6147537;23;20520;-75
2021/08/27 10:11:13;;;;;;;16.63;14.93;;;18.00;99.90;;;;;;6147947;23;20009;-75
2021/08/27 10:13:40;;;;;;;16.40;14.30;;;18.20;99.90;;;;;;6123939;23;20016;-75
2021/08/27 10:16:06;;;;;;;17.95;14.80;;;18.30;99.90;;;;;;6148133;23;20028;-75
2021/08/27 10:18:32;;;;;;;18.00;16.20;;;18.40;99.90;;;;;;6149672;23;20018;-75
2021/08/27 10:20:58;;;;;;;16.08;14.48;;;18.50;99.90;;;;;;6149248;23;20002;-75
2021/08/27 10:23:24;;;;;;;19.60;15.95;;;18.40;99.90;;;;;;6143830;23;20072;-75
2021/08/27 10:25:52;;;;;;;16.15;14.10;;;18.30;99.90;;;;;;6148560;23;20388;-75
2021/08/27 10:28:18;;;;;;;21.10;15.50;;;18.40;99.90;;;;;;6148929;23;20068;-76
2021/08/27 10:30:59;;;;;;;16.38;13.73;;;18.60;99.90;;;;;;6148807;23;20009;-75
2021/08/27 10:33:42;;;;;;;16.33;13.23;;;18.80;99.90;;;;;;6146627;23;20337;-75
2021/08/27 10:36:31;;;;;;;13.68;12.25;;;18.90;99.90;;;;;;6145769;23;20013;-76
2021/08/27 10:39:00;;;;;;;13.65;12.25;;;19.00;99.90;;;;;;6145707;23;20033;-75
2021/08/27 10:41:37;;;;;;;12.98;11.68;;;18.90;99.90;;;;;;6145904;23;20001;-75
2021/08/27 10:44:06;;;;;;;17.30;13.93;;;19.00;99.90;;;;;;6148054;23;20028;-75
2021/08/27 10:46:47;;;;;;;12.52;11.20;;;19.00;99.90;;;;;;6148344;23;20033;-76
2021/08/27 10:49:14;;;;;;;16.27;11.90;;;19.10;99.90;;;;;;6149334;23;20002;-75
2021/08/27 10:51:42;;;;;;;14.75;13.30;;;19.20;99.90;;;;;;6147229;23;20384;-75
2021/08/27 10:54:09;;;;;;;14.70;12.50;;;19.40;99.90;;;;;;6122478;23;20016;-75
2021/08/27 10:56:51;;;;;;;14.65;13.10;;;19.40;99.90;;;;;;6148411;23;20017;-75
2021/08/27 10:59:33;;;;;;;14.32;12.30;;;19.60;99.90;;;;;;6147573;23;20539;-75
2021/08/27 11:01:59;;;;;;;13.05;11.70;;;19.60;99.90;;;;;;6148971;23;20033;-76
2021/08/27 11:04:43;;;;;;;13.52;12.05;;;19.50;99.90;;;;;;6150056;23;20006;-75
2021/08/27 11:07:20;;;;;;;13.00;10.98;;;19.50;99.90;;;;;;6151478;23;20013;-75
2021/08/27 11:10:16;;;;;;;12.20;10.98;;;19.50;99.90;;;;;;6124554;23;20009;-75
2021/08/27 11:12:42;;;;;;;13.40;11.18;;;19.60;99.90;;;;;;6119043;23;20060;-75
2021/08/27 11:15:29;;;;;;;11.90;10.48;;;19.70;99.90;;;;;;6150959;23;20017;-76
2021/08/27 11:18:17;;;;;;;14.38;12.10;;;19.60;99.90;;;;;;6151024;23;20021;-75
2021/08/27 11:20:43;;;;;;;17.45;10.93;;;19.40;99.90;;;;;;6152578;23;20009;-75
2021/08/27 11:23:13;;;;;;;13.68;12.18;;;19.20;99.90;;;;;;6152160;23;20302;-75
2021/08/27 11:25:40;;;;;;;14.30;12.50;;;19.00;99.90;;;;;;6151553;23;20001;-75
2021/08/27 11:28:10;;;;;;;13.85;12.48;;;19.00;99.90;;;;;;6152138;23;20377;-75
2021/08/27 11:30:38;;;;;;;14.50;11.93;;;18.90;99.90;;;;;;6152154;23;19998;-76
2021/08/27 11:33:04;;;;;;;13.88;12.23;;;18.80;99.90;;;;;;6150322;23;20076;-76
2021/08/27 11:35:30;;;;;;;14.88;12.68;;;18.60;99.90;;;;;;6151743;23;20048;-76
2021/08/27 11:38:07;;;;;;;14.02;12.60;;;18.60;99.90;;;;;;6151457;23;20002;-75
2021/08/27 11:40:33;;;;;;;17.92;12.48;;;18.60;99.90;;;;;;6151940;23;20052;-75
2021/08/27 11:42:59;;;;;;;14.90;13.45;;;18.60;99.90;;;;;;6152312;23;21022;-76
2021/08/27 11:45:27;;;;;;;15.13;13.55;;;18.50;99.90;;;;;;6151712;23;20084;-75
2021/08/27 11:47:55;;;;;;;15.10;13.40;;;18.50;99.90;;;;;;6146045;23;20016;-76
2021/08/27 11:50:31;;;;;;;18.48;13.15;;;18.50;99.90;;;;;;6150861;23;20452;-75
2021/08/27 11:52:59;;;;;;;14.35;12.30;;;18.50;99.90;;;;;;6125024;23;20005;-75
2021/08/27 11:55:25;;;;;;;16.80;11.25;;;18.60;99.90;;;;;;6150462;23;20024;-75
2021/08/27 11:57:53;;;;;;;13.45;12.05;;;18.60;99.90;;;;;;6151262;23;20420;-75
2021/08/27 12:00:24;;;;;;;12.85;11.25;;;18.60;99.90;;;;;;6151850;23;20025;-77
2021/08/27 12:02:57;;;;;;;16.48;11.43;;;18.70;99.90;;;;;;6151388;23;20009;-77
2021/08/27 12:05:24;;;;;;;13.50;11.75;;;18.80;99.90;;;;;;6122173;23;20413;-76
2021/08/27 12:07:57;;;;;;;14.40;12.20;;;18.90;99.90;;;;;;6150080;23;20010;-77
2021/08/27 12:10:24;;;;;;;13.35;11.55;;;19.00;99.90;;;;;;6149804;23;20010;-76
2021/08/27 12:12:52;;;;;;;14.93;12.48;;;19.10;99.90;;;;;;6149362;23;20016;-78
2021/08/27 12:15:21;;;;;;;15.57;12.43;;;19.20;99.90;;;;;;6149775;23;20009;-76
2021/08/27 12:17:58;;;;;;;15.40;12.68;;;19.30;99.90;;;;;;6149469;23;20294;-76
2021/08/27 12:20:28;;;;;;;16.05;14.05;;;19.40;99.90;;;;;;6149132;23;20028;-76
2021/08/27 12:23:00;;;;;;;15.05;13.45;;;19.50;99.90;;;;;;6150657;23;20012;-77
2021/08/27 12:25:29;;;;;;;15.60;13.93;;;19.50;99.90;;;;;;6152048;23;20425;-77
2021/08/27 12:27:56;;;;;;;15.77;12.25;;;19.50;99.90;;;;;;6150540;23;20750;-76
2021/08/27 12:30:23;;;;;;;11.73;9.98;;;19.60;99.90;;;;;;6149472;23;20446;-77
2021/08/27 12:32:50;;;;;;;12.38;9.65;;;19.60;99.90;;;;;;6151108;23;20005;-77
2021/08/27 12:35:20;;;;;;;10.80;9.70;;;19.70;99.90;;;;;;6151583;23;20337;-77
2021/08/27 12:37:49;;;;;;;10.13;9.13;;;19.90;99.90;;;;;;6150557;23;20460;-77